Time;durP1;ratioP1;P1;durP2;ratioP2;P2;SDS_P1;SDS_P2;PMS_P1;PMS_P2;Temp;Humidity;BMP_temperature;BMP_pressure;BME280_temperature;BME280_humidity;BME280_pressure;Samples;Min_cycle;Max_cycle;Signal;HPM_P1;HPM_P2
2022/09/26 00:01:11;;;;;;;;;2.00;1.00;;;;;15.02;54.70;101076.66;5080824;28;45367;-81
2022/09/26 00:03:37;;;;;;;;;2.00;2.00;;;;;15.00;54.72;101079.34;5072253;28;45280;-81
2022/09/26 00:06:06;;;;;;;;;1.75;1.00;;;;;14.93;54.92;101062.66;5075061;27;45502;-81
2022/09/26 00:08:32;;;;;;;;;2.00;2.00;;;;;14.98;55.00;101063.47;5071464;28;47297;-80
2022/09/26 00:11:00;;;;;;;;;2.50;2.50;;;;;14.97;54.53;101060.84;5079949;27;45416;-81
2022/09/26 00:13:26;;;;;;;;;2.75;2.75;;;;;14.93;55.03;101056.50;5072289;28;45649;-81
2022/09/26 00:15:53;;;;;;;;;1.00;1.00;;;;;14.91;55.14;101052.97;5069375;27;45250;-80
2022/09/26 00:18:18;;;;;;;;;1.00;1.00;;;;;14.86;55.02;101042.47;5071076;27;48828;-80
2022/09/26 00:20:44;;;;;;;;;2.00;2.00;;;;;14.81;55.10;101035.47;5078532;28;45243;-81
2022/09/26 00:23:09;;;;;;;;;1.25;1.00;;;;;14.85;55.16;101038.06;5081657;28;45507;-81
2022/09/26 00:25:35;;;;;;;;;2.00;2.00;;;;;14.84;55.19;101044.28;5079185;27;45383;-81
2022/09/26 00:28:00;;;;;;;;;1.00;1.00;;;;;14.78;55.68;101033.75;5069592;28;45908;-80
2022/09/26 00:30:26;;;;;;;;;2.00;2.00;;;;;14.85;55.59;101042.47;5069137;28;45243;-81
2022/09/26 00:32:51;;;;;;;;;2.25;2.00;;;;;14.78;55.62;101031.09;5083233;27;45286;-81
2022/09/26 00:35:17;;;;;;;;;1.00;1.00;;;;;14.81;55.42;101028.41;5069269;27;45373;-80
2022/09/26 00:37:42;;;;;;;;;3.25;3.00;;;;;14.72;55.42;101024.13;5072383;28;47747;-80
2022/09/26 00:40:08;;;;;;;;;5.25;5.25;;;;;14.69;55.68;101013.56;5075352;28;45298;-80
2022/09/26 00:42:33;;;;;;;;;2.25;2.00;;;;;14.70;55.26;101015.34;5070385;28;45512;-80
2022/09/26 00:44:59;;;;;;;;;3.00;3.00;;;;;14.68;55.65;101014.50;5082647;27;45588;-80
2022/09/26 00:47:51;;;;;;;;;2.00;2.00;;;;;14.73;55.41;101020.59;5061203;28;47102;-81
2022/09/26 00:50:29;;;;;;;;;2.00;2.00;;;;;14.69;55.62;101012.72;5074196;28;45496;-80
2022/09/26 00:53:00;;;;;;;;;3.00;3.00;;;;;14.68;55.88;101011.84;5075202;28;45413;-81
2022/09/26 00:55:33;;;;;;;;;0.00;0.00;;;;;14.71;56.05;101010.91;5070410;28;45505;-80
2022/09/26 00:58:13;;;;;;;;;2.00;2.00;;;;;14.68;55.97;101001.25;5081153;27;48670;-80
2022/09/26 01:00:41;;;;;;;;;2.75;2.75;;;;;14.66;55.94;100995.06;5074402;28;45516;-80
2022/09/26 01:03:06;;;;;;;;;1.25;1.25;;;;;14.69;55.69;101000.31;5081269;27;45567;-80
2022/09/26 01:05:34;;;;;;;;;2.50;2.50;;;;;14.65;56.06;101001.28;5081409;27;45263;-81
2022/09/26 01:08:01;;;;;;;;;2.50;2.50;;;;;14.55;55.96;100986.44;5074679;28;46254;-80
2022/09/26 01:10:28;;;;;;;;;3.50;3.50;;;;;14.62;55.78;101004.00;5069389;28;45494;-81
2022/09/26 01:12:56;;;;;;;;;3.25;3.25;;;;;14.49;55.65;100986.50;5059811;28;45390;-80
2022/09/26 01:15:22;;;;;;;;;2.00;2.00;;;;;14.51;56.00;100985.59;5090524;27;45614;-81
2022/09/26 01:17:49;;;;;;;;;2.00;2.00;;;;;14.53;55.93;100996.19;5080645;28;46616;-79
2022/09/26 01:20:17;;;;;;;;;3.00;3.00;;;;;14.53;56.20;100996.19;5080901;28;45274;-80
2022/09/26 01:22:51;;;;;;;;;1.50;1.00;;;;;14.50;55.95;100993.56;5065043;28;45472;-81
2022/09/26 01:25:48;;;;;;;;;0.00;0.00;;;;;14.51;56.17;100992.63;5082378;27;45394;-80
2022/09/26 01:28:41;;;;;;;;;4.00;4.00;;;;;14.44;55.92;100981.28;5070827;28;46553;-80
2022/09/26 01:31:12;;;;;;;;;4.25;3.75;;;;;14.53;55.97;100996.19;5082034;27;45503;-80
2022/09/26 01:33:57;;;;;;;;;4.25;4.00;;;;;14.50;56.13;100991.78;5069281;28;45208;-79
2022/09/26 01:36:43;;;;;;;;;2.00;2.00;;;;;14.50;56.17;100989.13;5071662;27;45277;-81
2022/09/26 01:39:41;;;;;;;;;2.75;2.75;;;;;14.42;55.90;100976.91;5069475;28;45564;-80
2022/09/26 01:42:23;;;;;;;;;1.00;1.00;;;;;14.47;56.34;100985.66;5083596;27;45457;-80
2022/09/26 01:45:13;;;;;;;;;2.00;2.00;;;;;14.43;55.99;100976.84;5067134;27;45217;-80
2022/09/26 01:47:45;;;;;;;;;3.00;3.00;;;;;14.44;55.69;100978.63;5072032;28;45346;-80
2022/09/26 01:50:26;;;;;;;;;2.75;1.00;;;;;14.36;55.70;100955.81;5078246;27;47261;-81
2022/09/26 01:53:08;;;;;;;;;1.75;1.75;;;;;14.34;55.91;100954.06;5074985;28;45775;-81
2022/09/26 01:55:47;;;;;;;;;2.25;1.00;;;;;14.38;55.68;100951.34;5070647;28;45419;-80
2022/09/26 01:58:24;;;;;;;;;4.50;3.00;;;;;14.41;55.86;100954.84;5074880;27;45492;-80
2022/09/26 02:00:57;;;;;;;;;2.25;2.00;;;;;14.37;55.96;100946.97;5081598;27;47183;-80
2022/09/26 02:03:29;;;;;;;;;2.00;2.00;;;;;14.31;55.63;100940.00;5069180;28;45295;-81
2022/09/26 02:06:01;;;;;;;;;3.50;3.50;;;;;14.33;55.90;100944.38;5075659;27;45382;-79
2022/09/26 02:08:36;;;;;;;;;2.00;2.00;;;;;14.36;56.18;100948.75;5071296;28;45350;-81
2022/09/26 02:11:11;;;;;;;;;2.00;1.25;;;;;14.24;56.01;100927.75;5074377;28;46549;-81
2022/09/26 02:13:50;;;;;;;;;0.75;0.00;;;;;14.28;56.35;100932.09;5071992;28;45472;-81
2022/09/26 02:16:36;;;;;;;;;2.00;2.00;;;;;14.29;56.67;100925.91;5080734;28;45397;-80
2022/09/26 02:19:11;;;;;;;;;1.25;1.00;;;;;14.23;56.08;100918.94;5077686;28;45204;-81
2022/09/26 02:21:39;;;;;;;;;1.00;1.00;;;;;14.17;56.55;100905.78;5059769;28;47290;-80
2022/09/26 02:24:04;;;;;;;;;1.00;1.00;;;;;14.25;56.50;100921.56;5079137;27;45223;-80
2022/09/26 02:26:30;;;;;;;;;1.75;1.75;;;;;14.16;56.43;100908.44;5080879;28;45176;-80
2022/09/26 02:28:56;;;;;;;;;1.25;0.75;;;;;14.20;56.80;100907.53;5064556;27;45574;-81
2022/09/26 02:31:24;;;;;;;;;2.00;1.00;;;;;14.17;56.75;100904.94;5068871;28;47177;-80
2022/09/26 02:33:51;;;;;;;;;1.00;1.00;;;;;14.13;57.00;100898.78;5082963;27;45382;-80
2022/09/26 02:36:19;;;;;;;;;2.75;2.00;;;;;14.05;57.03;100879.50;5079733;28;45262;-80
2022/09/26 02:38:44;;;;;;;;;0.50;0.50;;;;;14.16;56.93;100895.22;5083488;27;45805;-80
2022/09/26 02:41:27;;;;;;;;;1.00;1.00;;;;;14.19;56.91;100887.22;5068600;28;46988;-79
2022/09/26 02:43:53;;;;;;;;;2.75;2.75;;;;;14.18;56.77;100873.09;5079710;28;45226;-80
2022/09/26 02:46:37;;;;;;;;;3.00;2.00;;;;;14.17;56.95;100875.81;5080176;28;45278;-80
2022/09/26 02:49:11;;;;;;;;;1.00;1.00;;;;;14.12;57.18;100865.28;5086933;27;45618;-81
2022/09/26 02:51:45;;;;;;;;;2.00;2.00;;;;;14.09;57.11;100858.25;5069280;28;45468;-80
2022/09/26 02:54:20;;;;;;;;;1.75;1.75;;;;;14.05;57.36;100858.31;5072495;28;45314;-81
2022/09/26 02:57:04;;;;;;;;;1.75;1.75;;;;;14.01;57.40;100852.22;5079853;28;45477;-80
2022/09/26 02:59:53;;;;;;;;;2.50;0.25;;;;;13.99;57.43;100851.34;5081844;27;45440;-81
2022/09/26 03:02:26;;;;;;;;;4.00;2.75;;;;;13.98;57.94;100846.97;5065279;28;45566;-80
2022/09/26 03:05:02;;;;;;;;;2.00;2.00;;;;;13.93;57.92;100827.66;5078186;27;45247;-79
2022/09/26 03:07:36;;;;;;;;;1.67;1.67;;;;;13.99;57.47;100834.59;5077835;28;45434;-80
2022/09/26 03:10:06;;;;;;;;;3.00;2.00;;;;;14.00;57.47;100821.31;5075186;27;45218;-81
2022/09/26 03:12:32;;;;;;;;;3.25;3.25;;;;;13.97;57.69;100820.50;5077312;28;45583;-81
2022/09/26 03:15:01;;;;;;;;;1.50;1.00;;;;;13.99;57.83;100808.13;5072431;28;45461;-80
2022/09/26 03:17:27;;;;;;;;;1.25;1.00;;;;;13.96;57.48;100801.13;5070577;27;45248;-81
2022/09/26 03:20:03;;;;;;;;;1.00;1.00;;;;;13.94;57.77;100805.56;5073570;27;45528;-80
2022/09/26 03:22:28;;;;;;;;;2.00;1.00;;;;;13.93;57.71;100800.31;5075230;28;46692;-81
2022/09/26 03:24:58;;;;;;;;;0.75;0.75;;;;;13.92;57.85;100793.25;5083578;27;45252;-80
2022/09/26 03:27:24;;;;;;;;;1.50;1.00;;;;;13.89;57.85;100791.53;5082512;28;45512;-80
2022/09/26 03:29:49;;;;;;;;;1.00;1.00;;;;;13.88;57.63;100781.84;5083735;27;45283;-80
2022/09/26 03:32:15;;;;;;;;;2.50;2.50;;;;;13.89;57.68;100791.53;5069664;27;46127;-79
2022/09/26 03:34:40;;;;;;;;;1.75;1.75;;;;;13.85;57.56;100780.13;5088538;27;45374;-81
2022/09/26 03:37:06;;;;;;;;;1.50;1.00;;;;;13.88;57.79;100774.78;5075178;28;45399;-80
2022/09/26 03:39:32;;;;;;;;;3.00;3.00;;;;;13.85;57.77;100769.53;5074382;28;45268;-81
2022/09/26 03:41:57;;;;;;;;;2.25;1.00;;;;;13.79;57.98;100761.72;5068822;28;46532;-80
2022/09/26 03:44:24;;;;;;;;;2.75;0.50;;;;;13.76;57.55;100760.88;5074150;27;45288;-80
2022/09/26 03:46:50;;;;;;;;;1.50;1.50;;;;;13.81;58.05;100765.19;5080226;28;45271;-79
2022/09/26 03:49:15;;;;;;;;;4.75;3.50;;;;;13.85;58.06;100768.69;5088466;27;45600;-81
2022/09/26 03:51:41;;;;;;;;;3.00;1.00;;;;;13.85;57.96;100774.84;5067738;28;45234;-80
2022/09/26 03:54:07;;;;;;;;;1.75;1.75;;;;;13.87;58.22;100761.56;5072810;28;45409;-80
2022/09/26 03:56:32;;;;;;;;;2.00;1.00;;;;;13.82;57.88;100747.53;5075105;28;45409;-81
2022/09/26 03:58:57;;;;;;;;;4.00;2.00;;;;;13.88;57.59;100752.75;5063111;28;45412;-81
2022/09/26 04:01:23;;;;;;;;;2.00;1.00;;;;;13.81;57.63;100746.66;5066778;28;45496;-80
2022/09/26 04:03:49;;;;;;;;;1.00;1.00;;;;;13.82;57.85;100732.56;5071264;27;45371;-80
2022/09/26 04:06:19;;;;;;;;;3.25;2.25;;;;;13.78;57.68;100724.69;5080726;28;45405;-80
2022/09/26 04:08:46;;;;;;;;;4.50;3.25;;;;;13.81;57.60;100725.50;5069439;28;45429;-80
2022/09/26 04:11:15;;;;;;;;;4.25;3.25;;;;;13.84;57.49;100729.84;5076086;28;45299;-81
2022/09/26 04:13:42;;;;;;;;;2.75;2.75;;;;;13.77;57.40;100715.88;5075710;28;45449;-82
2022/09/26 04:16:08;;;;;;;;;4.75;3.00;;;;;13.79;57.48;100714.09;5069771;27;45446;-81
2022/09/26 04:18:34;;;;;;;;;2.00;1.25;;;;;13.81;57.40;100709.63;5078242;28;45239;-81
2022/09/26 04:21:08;;;;;;;;;1.00;1.00;;;;;13.79;57.25;100706.16;5075680;28;45947;-81
2022/09/26 04:23:36;;;;;;;;;1.00;1.00;;;;;13.69;57.58;100686.03;5076479;28;45480;-81
2022/09/26 04:26:07;;;;;;;;;2.00;0.75;;;;;13.78;57.21;100699.09;5081925;27;45488;-81
2022/09/26 04:28:34;;;;;;;;;1.25;1.00;;;;;13.78;57.54;100690.28;5084669;27;45359;-81
2022/09/26 04:31:00;;;;;;;;;3.00;3.00;;;;;13.75;57.35;100685.91;5066953;28;47295;-81
2022/09/26 04:33:26;;;;;;;;;1.00;1.00;;;;;13.73;57.22;100666.53;5076989;28;45224;-81
2022/09/26 04:35:51;;;;;;;;;0.25;0.25;;;;;13.69;57.28;100651.66;5090508;27;45447;-81
2022/09/26 04:38:17;;;;;;;;;2.50;2.50;;;;;13.73;56.86;100658.59;5061684;28;45439;-81
2022/09/26 04:40:43;;;;;;;;;1.25;1.00;;;;;13.77;56.84;100646.22;5074466;27;45424;-81
2022/09/26 04:43:09;;;;;;;;;1.25;1.25;;;;;13.67;56.98;100632.28;5073626;28;45402;-81
2022/09/26 04:45:35;;;;;;;;;1.00;1.00;;;;;13.72;56.73;100643.66;5068759;28;45432;-81
2022/09/26 04:48:01;;;;;;;;;5.00;3.00;;;;;13.68;56.99;100634.91;5067944;28;45341;-81
2022/09/26 04:50:27;;;;;;;;;0.00;0.00;;;;;13.71;57.16;100638.38;5077486;27;46841;-81
2022/09/26 04:52:53;;;;;;;;;3.00;3.00;;;;;13.73;56.80;100629.50;5060810;28;45239;-81
2022/09/26 04:55:19;;;;;;;;;0.25;0.00;;;;;13.73;56.50;100624.22;5073422;27;45268;-81
2022/09/26 04:57:48;;;;;;;;;4.00;4.00;;;;;13.76;56.61;100621.50;5074403;28;45355;-81
2022/09/26 05:00:14;;;;;;;;;1.75;1.00;;;;;13.77;56.60;100620.63;5079432;28;45361;-81
2022/09/26 05:02:40;;;;;;;;;1.00;1.00;;;;;13.81;56.76;100624.94;5065943;28;45749;-81
2022/09/26 05:05:06;;;;;;;;;4.50;4.00;;;;;13.79;56.59;100617.94;5074323;27;45410;-81
2022/09/26 05:07:41;;;;;;;;;2.00;2.00;;;;;13.76;56.73;100607.41;5080774;27;45507;-81
2022/09/26 05:10:09;;;;;;;;;0.00;0.00;;;;;13.76;56.40;100602.13;5069437;28;47180;-81
2022/09/26 05:12:38;;;;;;;;;1.00;0.00;;;;;13.66;56.22;100578.50;5073064;28;45440;-81
2022/09/26 05:15:05;;;;;;;;;0.75;0.75;;;;;13.66;56.33;100567.91;5070524;28;45251;-81
2022/09/26 05:17:31;;;;;;;;;3.00;3.00;;;;;13.66;56.56;100567.03;5065626;28;45508;-81
2022/09/26 05:19:59;;;;;;;;;2.00;2.00;;;;;13.70;56.38;100570.50;5069535;27;45836;-81
2022/09/26 05:22:29;;;;;;;;;2.25;1.00;;;;;13.67;56.38;100563.50;5074024;28;45243;-81
2022/09/26 05:27:41;;;;;;;;;1.25;1.00;;;;;13.74;56.38;100562.47;5075045;28;45401;-81
2022/09/26 05:30:07;;;;;;;;;0.00;0.00;;;;;13.67;56.10;100544.97;5072103;28;47004;-81
2022/09/26 05:32:33;;;;;;;;;4.75;4.00;;;;;13.71;56.49;100545.78;5063918;27;45433;-81
2022/09/26 05:34:58;;;;;;;;;0.75;0.75;;;;;13.80;56.46;100566.78;5073315;27;45222;-81
2022/09/26 05:37:24;;;;;;;;;1.25;1.00;;;;;13.68;56.65;100549.34;5065711;28;46512;-81
2022/09/26 05:42:33;;;;;;;;;3.00;3.00;;;;;13.79;56.38;100565.00;5078885;28;45440;-78
2022/09/26 05:45:02;;;;;;;;;3.75;2.25;;;;;13.86;56.53;100561.34;5070217;27;45436;-82
2022/09/26 05:47:34;;;;;;;;;1.25;1.25;;;;;13.81;56.44;100545.56;5064682;28;45517;-82
2022/09/26 05:50:08;;;;;;;;;0.00;0.00;;;;;13.90;56.51;100558.63;5078816;27;46805;-83
2022/09/26 05:52:36;;;;;;;;;1.25;1.25;;;;;13.91;56.45;100556.84;5060174;28;45279;-82
2022/09/26 05:55:02;;;;;;;;;0.00;0.00;;;;;13.83;56.27;100540.25;5071824;28;45422;-83
2022/09/26 05:57:27;;;;;;;;;1.00;1.00;;;;;13.85;56.40;100546.38;5080166;27;45428;-81
2022/09/26 05:59:53;;;;;;;;;1.25;1.00;;;;;13.86;56.48;100548.97;5067425;27;45577;-81
2022/09/26 06:02:18;;;;;;;;;1.50;1.00;;;;;13.75;56.73;100524.53;5080176;27;45373;-82
2022/09/26 06:04:44;;;;;;;;;3.00;3.00;;;;;13.77;56.24;100538.59;5080069;27;45392;-82
2022/09/26 06:07:11;;;;;;;;;2.25;2.00;;;;;13.79;56.65;100546.50;5069947;27;45335;-82
2022/09/26 06:09:37;;;;;;;;;1.50;1.00;;;;;13.74;56.67;100529.84;5066660;28;47555;-82
2022/09/26 06:12:02;;;;;;;;;1.25;1.25;;;;;13.72;56.88;100524.59;5059878;28;45291;-82
2022/09/26 06:14:28;;;;;;;;;2.50;2.50;;;;;13.74;56.45;100536.03;5076189;28;45266;-81
2022/09/26 06:16:53;;;;;;;;;2.00;2.00;;;;;13.73;56.67;100539.56;5070894;28;45271;-82
2022/09/26 06:19:19;;;;;;;;;3.25;2.25;;;;;13.66;57.07;100532.66;5060591;28;46497;-81
2022/09/26 06:21:44;;;;;;;;;1.50;1.25;;;;;13.63;56.98;100524.75;5078706;28;45382;-83
2022/09/26 06:24:10;;;;;;;;;0.75;0.75;;;;;13.64;57.34;100523.88;5078796;28;45473;-89
2022/09/26 06:26:36;;;;;;;;;1.00;1.00;;;;;13.66;57.11;100522.94;5067297;28;45591;-82
2022/09/26 06:29:02;;;;;;;;;1.75;1.00;;;;;13.73;57.09;100521.03;5077757;28;47263;-82
2022/09/26 06:31:28;;;;;;;;;1.00;1.00;;;;;13.77;57.46;100522.72;5076398;28;45523;-82
2022/09/26 06:33:54;;;;;;;;;2.00;1.00;;;;;13.80;57.19;100535.88;5083462;27;45271;-82
2022/09/26 06:36:21;;;;;;;;;2.00;2.00;;;;;13.74;57.37;100513.97;5075068;28;45587;-83
2022/09/26 06:38:47;;;;;;;;;3.25;3.25;;;;;13.77;56.88;100524.50;5064295;28;48090;-85
2022/09/26 06:41:16;;;;;;;;;1.25;1.25;;;;;13.80;56.80;100532.38;5079171;27;45510;-84
2022/09/26 06:43:46;;;;;;;;;1.25;1.00;;;;;13.84;57.38;100526.97;5064632;28;45339;-84
2022/09/26 06:46:13;;;;;;;;;6.00;4.00;;;;;13.88;57.31;100525.16;5098938;27;45325;-83
2022/09/26 06:48:39;;;;;;;;;2.25;2.25;;;;;13.89;56.94;100511.00;5098577;27;47128;-84
2022/09/26 06:51:05;;;;;;;;;1.00;1.00;;;;;13.88;56.74;100499.56;5083212;27;45237;-84
2022/09/26 06:53:33;;;;;;;;;3.00;3.00;;;;;14.03;57.17;100505.41;5073929;27;45159;-88
2022/09/26 06:55:59;;;;;;;;;1.25;1.25;;;;;14.03;57.10;100503.66;5081564;28;45454;-83
2022/09/26 06:58:24;;;;;;;;;2.00;2.00;;;;;14.06;56.76;100500.94;5079003;28;46585;-83
2022/09/26 07:00:50;;;;;;;;;2.00;2.00;;;;;14.14;56.80;100506.06;5072879;28;45378;-88
2022/09/26 07:03:16;;;;;;;;;1.00;1.00;;;;;14.03;56.76;100469.25;5068227;28;45416;-83
2022/09/26 07:05:44;;;;;;;;;3.75;2.75;;;;;14.08;56.86;100475.28;5095042;27;45477;-83
2022/09/26 07:08:09;;;;;;;;;1.00;1.00;;;;;14.10;56.24;100475.25;5081194;28;47352;-83
2022/09/26 07:10:35;;;;;;;;;1.25;1.25;;;;;14.09;56.67;100470.88;5081099;28;45965;-83
2022/09/26 07:13:05;;;;;;;;;2.00;2.00;;;;;14.10;56.20;100470.81;5070579;28;45251;-82
2022/09/26 07:15:33;;;;;;;;;3.00;2.00;;;;;14.11;56.37;100450.50;5071328;28;45779;-82
2022/09/26 07:18:01;;;;;;;;;1.50;1.00;;;;;14.12;56.33;100450.50;5061792;28;46428;-82
2022/09/26 07:20:28;;;;;;;;;0.00;0.00;;;;;14.16;56.30;100439.81;5063453;28;45467;-85
2022/09/26 07:23:03;;;;;;;;;0.75;0.75;;;;;14.13;56.49;100423.09;5079857;28;45385;-83
2022/09/26 07:25:32;;;;;;;;;3.25;2.75;;;;;14.27;56.37;100440.44;5097789;27;45340;-86
2022/09/26 07:27:58;;;;;;;;;3.00;1.25;;;;;14.28;56.39;100429.81;5074744;28;46127;-82
2022/09/26 07:30:24;;;;;;;;;1.00;1.00;;;;;14.32;56.27;100434.13;5064121;28;45287;-82
2022/09/26 07:32:49;;;;;;;;;1.25;1.00;;;;;14.36;56.11;100424.34;5080562;28;45252;-82
2022/09/26 07:35:18;;;;;;;;;1.75;1.50;;;;;14.33;56.09;100409.41;5082688;28;45236;-82
2022/09/26 07:37:43;;;;;;;;;2.00;1.75;;;;;14.34;56.18;100400.53;5083254;27;46831;-82
2022/09/26 07:40:10;;;;;;;;;2.00;2.00;;;;;14.38;56.15;100406.66;5069595;28;45666;-83
2022/09/26 07:42:37;;;;;;;;;2.00;2.00;;;;;14.55;56.40;100412.41;5077412;27;45298;-83
2022/09/26 07:45:04;;;;;;;;;2.75;2.75;;;;;14.57;55.91;100407.09;5072644;28;45837;-82
2022/09/26 07:50:16;;;;;;;;;0.25;0.25;;;;;14.65;55.80;100401.56;5068653;28;46619;-83
2022/09/26 07:52:44;;;;;;;;;3.00;2.00;;;;;14.64;55.73;100395.41;5081025;28;45435;-84
2022/09/26 07:55:13;;;;;;;;;4.00;2.25;;;;;14.71;55.86;100404.06;5096327;27;45377;-83
2022/09/26 07:57:38;;;;;;;;;0.00;0.00;;;;;14.73;55.46;100389.00;5072059;27;45522;-83
2022/09/26 08:00:07;;;;;;;;;1.50;1.50;;;;;14.81;55.58;100412.63;5077206;28;45204;-83
2022/09/26 08:02:34;;;;;;;;;2.50;1.00;;;;;14.86;55.46;100408.06;5072233;27;45424;-83
2022/09/26 08:05:04;;;;;;;;;1.00;1.00;;;;;14.88;55.35;100401.81;5078138;28;45570;-82
2022/09/26 08:07:30;;;;;;;;;4.00;2.75;;;;;14.84;54.88;100380.78;5080819;28;46177;-83
2022/09/26 08:09:57;;;;;;;;;3.67;3.67;;;;;14.90;54.97;100389.41;5083317;27;45501;-83
2022/09/26 08:12:24;;;;;;;;;1.00;1.00;;;;;14.94;54.84;100372.53;5077319;27;45432;-82
2022/09/26 08:14:50;;;;;;;;;0.00;0.00;;;;;15.07;54.55;100374.81;5078053;28;46076;-82
2022/09/26 08:17:16;;;;;;;;;1.00;1.00;;;;;15.14;54.31;100369.28;5085848;27;47381;-82
2022/09/26 08:19:42;;;;;;;;;3.33;2.00;;;;;15.21;54.43;100360.25;5065840;28;45480;-82
2022/09/26 08:22:10;;;;;;;;;2.75;0.75;;;;;15.32;54.51;100362.59;5070239;27;45173;-82
2022/09/26 08:24:37;;;;;;;;;1.50;1.50;;;;;15.37;53.89;100366.00;5073073;28;45391;-83
2022/09/26 08:27:03;;;;;;;;;0.00;0.00;;;;;15.45;53.64;100357.81;5072035;28;47858;-82
2022/09/26 08:29:31;;;;;;;;;1.00;1.00;;;;;15.48;53.40;100336.50;5061811;27;45657;-83
2022/09/26 08:31:57;;;;;;;;;0.00;0.00;;;;;15.58;53.29;100342.34;5069757;27;45457;-80
2022/09/26 08:34:23;;;;;;;;;2.50;1.25;;;;;15.58;52.86;100339.72;5087622;27;45242;-82
2022/09/26 08:36:53;;;;;;;;;2.00;2.00;;;;;15.68;52.86;100345.59;5059483;28;46911;-81
2022/09/26 08:39:19;;;;;;;;;1.00;1.00;;;;;15.75;52.64;100332.13;5075717;28;45450;-81
2022/09/26 08:42:04;;;;;;;;;3.00;1.00;;;;;15.82;52.58;100316.88;5076644;28;45532;-84
2022/09/26 08:44:37;;;;;;;;;3.50;1.00;;;;;16.00;52.20;100320.72;5076195;28;45504;-84
2022/09/26 08:47:30;;;;;;;;;2.25;1.00;;;;;16.08;51.81;100318.66;5078213;28;45623;-83
2022/09/26 08:50:22;;;;;;;;;2.00;0.00;;;;;16.10;51.62;100328.31;5072018;28;45362;-83
2022/09/26 08:53:03;;;;;;;;;1.75;1.75;;;;;16.07;51.36;100308.97;5096091;27;45392;-83
2022/09/26 08:55:40;;;;;;;;;3.00;3.00;;;;;16.08;51.28;100297.44;5070213;27;45429;-82
2022/09/26 08:58:36;;;;;;;;;1.50;1.50;;;;;16.16;51.32;100299.84;5076702;28;46394;-81
2022/09/26 09:01:08;;;;;;;;;1.00;1.00;;;;;16.17;50.68;100305.09;5078018;28;45431;-84
2022/09/26 09:03:42;;;;;;;;;1.00;1.00;;;;;16.25;50.51;100302.16;5078285;27;45529;-84
2022/09/26 09:06:14;;;;;;;;;1.00;1.00;;;;;16.25;50.85;100300.41;5084139;27;45972;-83
2022/09/26 09:08:55;;;;;;;;;2.00;2.00;;;;;16.32;50.72;100296.59;5073378;28;47085;-81
2022/09/26 09:11:44;;;;;;;;;0.75;0.50;;;;;16.34;50.12;100285.06;5077721;27;45516;-81
2022/09/26 09:14:48;;;;;;;;;1.25;1.25;;;;;16.31;50.24;100294.00;5079254;28;45344;-82
2022/09/26 09:17:29;;;;;;;;;4.00;1.67;;;;;16.27;50.35;100273.75;5086293;27;45628;-82
2022/09/26 09:20:08;;;;;;;;;2.67;2.67;;;;;16.20;50.55;100257.19;5065839;27;46131;-81
2022/09/26 09:22:48;;;;;;;;;3.75;3.00;;;;;16.28;50.43;100276.38;5082991;27;45332;-81
2022/09/26 09:25:20;;;;;;;;;1.00;1.00;;;;;16.33;50.40;100249.63;5083062;27;45431;-80
2022/09/26 09:28:12;;;;;;;;;1.00;1.00;;;;;16.41;50.14;100268.84;5088930;27;45441;-80
2022/09/26 09:30:45;;;;;;;;;1.67;1.33;;;;;16.45;49.55;100251.00;5083263;27;47167;-81
2022/09/26 09:33:22;;;;;;;;;1.00;1.00;;;;;16.47;49.54;100244.72;5089029;27;45496;-81
2022/09/26 09:35:53;;;;;;;;;1.50;1.50;;;;;16.50;49.52;100233.09;5090166;27;45460;-85
2022/09/26 09:38:21;;;;;;;;;0.67;0.67;;;;;16.58;49.33;100224.84;5085956;27;45370;-84
2022/09/26 09:41:00;;;;;;;;;2.00;1.33;;;;;16.61;49.60;100222.94;5087324;27;45935;-83
2022/09/26 09:43:36;;;;;;;;;2.00;2.00;;;;;16.61;49.10;100228.25;5085191;27;45217;-85
2022/09/26 09:46:31;;;;;;;;;0.33;0.33;;;;;16.55;49.00;100217.88;5059682;28;45316;-86
2022/09/26 09:49:18;;;;;;;;;2.00;1.25;;;;;16.48;48.83;100205.72;5084656;27;45637;-85
2022/09/26 09:52:37;;;;;;;;;1.00;0.67;;;;;16.48;48.84;100198.59;5089306;27;46182;-85
2022/09/26 09:55:05;;;;;;;;;1.33;1.00;;;;;16.51;49.02;100210.91;5026146;28;45506;-87
2022/09/26 09:58:00;;;;;;;;;1.00;1.00;;;;;16.48;48.91;100203.91;5072151;28;45555;-89
2022/09/26 10:00:28;;;;;;;;;2.00;2.00;;;;;16.43;48.88;100197.91;5088277;27;45546;-87
2022/09/26 10:03:23;;;;;;;;;2.00;2.00;;;;;16.45;49.04;100185.44;5084679;27;45435;-88
2022/09/26 10:05:54;;;;;;;;;3.33;2.00;;;;;16.47;49.47;100177.44;5077855;28;45370;-89
2022/09/26 10:08:30;;;;;;;;;1.00;1.00;;;;;16.50;49.11;100167.53;5085419;27;45492;-87
2022/09/26 10:11:12;;;;;;;;;2.00;2.00;;;;;16.64;49.42;100174.13;5068433;27;45625;-87
2022/09/26 10:13:41;;;;;;;;;2.00;1.00;;;;;16.65;49.25;100171.41;5076948;28;47029;-91
2022/09/26 10:16:10;;;;;;;;;1.67;1.00;;;;;16.55;49.28;100138.13;5092305;27;45526;-86
2022/09/26 10:18:55;;;;;;;;;0.67;0.67;;;;;16.50;49.36;100134.78;5062615;27;45514;-83
2022/09/26 10:21:27;;;;;;;;;1.67;0.33;;;;;16.47;49.71;100134.91;5080800;27;45424;-87
2022/09/26 10:23:53;;;;;;;;;1.67;1.00;;;;;16.44;49.63;100122.59;5083373;27;46447;-88
2022/09/26 10:26:36;;;;;;;;;0.50;0.00;;;;;16.48;49.64;100131.31;5096273;27;45769;-90
2022/09/26 10:29:07;;;;;;;;;1.25;1.25;;;;;16.43;49.45;100123.50;5090542;27;45464;-89
2022/09/26 10:31:40;;;;;;;;;3.50;2.00;;;;;16.47;50.22;100129.59;5098409;27;45518;-89
2022/09/26 10:34:27;;;;;;;;;1.00;1.00;;;;;16.42;50.67;100121.78;5084028;27;47205;-85
2022/09/26 10:36:56;;;;;;;;;1.00;1.00;;;;;16.33;51.94;100116.81;5073782;28;45321;-87
2022/09/26 10:42:23;;;;;;;;;1.00;1.00;;;;;16.02;52.79;100120.59;5078501;28;45449;-84
2022/09/26 10:44:49;;;;;;;;;1.33;1.33;;;;;15.86;52.92;100108.81;5078168;27;48202;-85
2022/09/26 10:47:23;;;;;;;;;2.00;2.00;;;;;15.77;53.98;100104.69;5091816;27;45551;-85
2022/09/26 10:50:00;;;;;;;;;1.00;1.00;;;;;15.75;54.48;100103.03;5081041;27;45343;-83
2022/09/26 10:52:33;;;;;;;;;1.00;1.00;;;;;15.68;55.24;100090.84;5087071;27;45364;-85
2022/09/26 10:55:10;;;;;;;;;1.00;1.00;;;;;15.56;55.35;100081.53;5072001;27;47608;-85
2022/09/26 10:57:44;;;;;;;;;1.00;1.00;;;;;15.50;55.78;100085.25;5079519;27;45395;-85
2022/09/26 11:00:38;;;;;;;;;4.00;2.00;;;;;15.44;56.07;100082.81;5099893;27;45279;-85
2022/09/26 11:03:07;;;;;;;;;3.75;3.00;;;;;15.39;56.66;100071.50;5075876;27;45535;-85
2022/09/26 11:05:56;;;;;;;;;1.75;1.75;;;;;15.34;57.41;100071.69;5085510;27;46425;-85
2022/09/26 11:08:29;;;;;;;;;2.00;2.00;;;;;15.32;57.24;100077.94;5083588;28;45051;-85
2022/09/26 11:11:02;;;;;;;;;3.00;2.00;;;;;15.29;57.69;100072.72;5082861;27;45460;-85
2022/09/26 11:13:57;;;;;;;;;3.00;3.00;;;;;15.23;57.96;100063.19;5090219;27;46106;-85
2022/09/26 11:16:23;;;;;;;;;4.00;3.00;;;;;15.21;58.26;100060.59;5095458;27;46246;-84
2022/09/26 11:18:58;;;;;;;;;4.25;2.00;;;;;15.22;58.70;100064.97;5078831;27;45456;-86
2022/09/26 11:21:33;;;;;;;;;0.00;0.00;;;;;15.11;58.80;100053.03;5094732;27;45394;-85
2022/09/26 11:24:20;;;;;;;;;2.00;2.00;;;;;15.10;59.43;100054.81;5094635;27;45479;-85
2022/09/26 11:27:18;;;;;;;;;2.00;2.00;;;;;15.03;59.93;100047.97;5074652;27;47524;-85
2022/09/26 11:29:54;;;;;;;;;1.00;1.00;;;;;14.95;60.22;100052.66;5089790;27;45550;-86
2022/09/26 11:32:29;;;;;;;;;3.00;3.00;;;;;14.84;61.00;100038.91;5086015;27;45372;-83
2022/09/26 11:35:01;;;;;;;;;2.00;2.00;;;;;14.77;61.56;100020.53;5081696;28;45550;-84
2022/09/26 11:37:39;;;;;;;;;3.25;2.25;;;;;14.82;61.78;100015.09;5080718;28;45701;-85
2022/09/26 11:40:21;;;;;;;;;1.00;1.00;;;;;14.76;62.05;99996.75;5079601;28;45528;-90
2022/09/26 11:42:59;;;;;;;;;2.75;2.75;;;;;14.78;62.51;100008.13;5074924;28;45477;-85
2022/09/26 11:45:51;;;;;;;;;0.75;0.75;;;;;14.65;62.82;100001.50;5077255;28;45627;-83
2022/09/26 11:48:26;;;;;;;;;3.25;2.50;;;;;14.52;63.71;99995.72;5060068;28;45563;-84
2022/09/26 11:51:22;;;;;;;;;;;;;;;;;;;;;
2022/09/26 11:54:18;;;;;;;;;2.50;2.50;;;;;14.30;64.24;99982.28;5075470;28;67691;-82
2022/09/26 11:56:59;;;;;;;;;3.50;2.75;;;;;14.23;64.60;99978.09;5072600;28;45421;-80
2022/09/26 11:59:57;;;;;;;;;1.50;1.50;;;;;14.14;64.72;99976.63;5079449;27;46836;-80